Time;durP1;ratioP1;P1;durP2;ratioP2;P2;SDS_P1;SDS_P2;PMS_P1;PMS_P2;Temp;Humidity;BMP_temperature;BMP_pressure;BME280_temperature;BME280_humidity;BME280_pressure;Samples;Min_cycle;Max_cycle;Signal;HPM_P1;HPM_P2
2023/06/21 00:01:38;;;;;;;1.85;0.90;;;19.00;99.90;;;;;;5073380;28;20044;-77
2023/06/21 00:04:08;;;;;;;0.57;0.57;;;18.80;99.90;;;;;;5090702;28;20455;-80
2023/06/21 00:06:37;;;;;;;1.65;0.95;;;18.90;99.90;;;;;;5072897;28;20071;-78
2023/06/21 00:09:05;;;;;;;0.35;0.35;;;18.90;99.90;;;;;;5073590;28;20461;-77
2023/06/21 00:11:31;;;;;;;4.88;1.65;;;19.10;99.90;;;;;;5073109;28;20123;-81
2023/06/21 00:13:57;;;;;;;0.65;0.63;;;18.80;99.90;;;;;;5073266;28;20127;-79
2023/06/21 00:16:23;;;;;;;3.47;1.33;;;18.80;99.90;;;;;;5090139;28;20131;-78
2023/06/21 00:18:49;;;;;;;;;;;19.00;99.90;;;;;;5073003;28;20040;-76
2023/06/21 00:21:15;;;;;;;1.25;1.15;;;18.70;99.90;;;;;;5072726;28;20334;-77
2023/06/21 00:23:44;;;;;;;0.68;0.60;;;18.70;99.90;;;;;;5072248;28;20135;-80
2023/06/21 00:26:09;;;;;;;0.68;0.68;;;18.70;99.90;;;;;;5089238;28;20046;-78
2023/06/21 00:28:35;;;;;;;1.17;1.08;;;18.80;99.90;;;;;;5071826;28;20127;-76
2023/06/21 00:31:00;;;;;;;;;;;18.70;99.90;;;;;;5089758;28;20043;-78
2023/06/21 00:33:26;;;;;;;0.50;0.50;;;18.70;99.90;;;;;;5072384;28;19968;-77
2023/06/21 00:35:52;;;;;;;;;;;18.90;99.90;;;;;;5089520;28;20346;-75
2023/06/21 00:38:18;;;;;;;1.98;1.88;;;18.90;99.90;;;;;;5089447;28;20288;-75
2023/06/21 00:40:43;;;;;;;;;;;18.60;99.90;;;;;;5089328;28;20055;-76
2023/06/21 00:43:09;;;;;;;3.80;1.33;;;18.60;99.90;;;;;;5072267;28;19969;-79
2023/06/21 00:45:40;;;;;;;;;;;18.70;99.90;;;;;;5089320;28;20079;-78
2023/06/21 00:51:47;;;;;;;1.17;0.75;;;18.70;99.90;;;;;;5071557;28;20051;-77
2023/06/21 00:54:16;;;;;;;1.73;1.23;;;18.70;99.90;;;;;;5070450;28;20036;-77
2023/06/21 00:56:45;;;;;;;0.30;0.30;;;18.50;99.90;;;;;;5071171;28;20079;-77
2023/06/21 00:59:12;;;;;;;3.00;1.10;;;18.60;99.90;;;;;;5090821;28;20367;-78
2023/06/21 01:01:38;;;;;;;0.95;0.57;;;18.60;99.90;;;;;;5090364;28;20126;-75
2023/06/21 01:04:06;;;;;;;1.33;1.30;;;18.60;99.90;;;;;;5073257;28;20040;-78
2023/06/21 01:06:45;;;;;;;1.67;0.88;;;18.60;99.90;;;;;;5090211;28;20469;-75
2023/06/21 01:09:48;;;;;;;1.63;1.52;;;18.60;99.90;;;;;;5073493;28;20048;-76
2023/06/21 01:12:46;;;;;;;0.50;0.50;;;18.60;99.90;;;;;;5090304;28;20044;-78
2023/06/21 01:15:24;;;;;;;1.92;1.83;;;18.50;99.90;;;;;;5090621;28;20086;-75
2023/06/21 01:17:52;;;;;;;1.45;1.35;;;18.30;99.90;;;;;;5089364;28;20500;-78
2023/06/21 01:20:25;;;;;;;1.40;1.30;;;18.40;99.90;;;;;;5090396;28;20082;-78
2023/06/21 01:23:32;;;;;;;1.02;0.73;;;18.40;99.90;;;;;;5073756;28;20782;-77
2023/06/21 01:26:23;;;;;;;0.47;0.43;;;18.70;99.90;;;;;;5089833;28;20040;-78
2023/06/21 01:29:21;;;;;;;1.25;1.15;;;18.60;99.90;;;;;;5089591;28;20493;-78
2023/06/21 01:31:50;;;;;;;0.80;0.80;;;18.40;99.90;;;;;;5089532;28;20048;-77
2023/06/21 01:34:17;;;;;;;1.23;1.00;;;18.70;99.90;;;;;;5089730;28;20054;-77
2023/06/21 01:36:43;;;;;;;0.85;0.85;;;18.50;99.90;;;;;;5089845;28;20366;-76
2023/06/21 01:39:09;;;;;;;2.88;1.60;;;18.50;99.90;;;;;;5089043;28;20134;-78
2023/06/21 01:41:35;;;;;;;1.63;1.52;;;18.40;99.90;;;;;;5088642;28;20051;-76
2023/06/21 01:44:03;;;;;;;1.92;1.25;;;18.40;99.90;;;;;;5072074;28;20147;-79
2023/06/21 01:46:29;;;;;;;1.15;1.08;;;18.40;99.90;;;;;;5072748;28;20044;-80
2023/06/21 01:48:56;;;;;;;0.32;0.32;;;18.40;99.90;;;;;;5072318;28;20670;-78
2023/06/21 01:51:23;;;;;;;1.13;1.08;;;18.60;99.90;;;;;;5089441;28;20079;-79
2023/06/21 01:53:49;;;;;;;1.85;1.75;;;18.60;99.90;;;;;;5089835;28;20075;-77
2023/06/21 01:56:19;;;;;;;1.60;1.50;;;18.30;99.90;;;;;;5073336;28;20501;-77
2023/06/21 01:58:48;;;;;;;2.10;1.90;;;18.60;99.90;;;;;;5089094;28;20064;-76
2023/06/21 02:01:17;;;;;;;1.73;1.63;;;18.60;99.90;;;;;;5089255;28;20051;-78
2023/06/21 02:03:48;;;;;;;2.53;1.38;;;18.70;99.90;;;;;;5088924;28;20048;-76
2023/06/21 02:06:15;;;;;;;1.73;1.63;;;18.50;99.90;;;;;;5089582;28;20052;-78
2023/06/21 02:08:42;;;;;;;0.43;0.43;;;18.70;99.90;;;;;;5072584;28;20048;-78
2023/06/21 02:11:08;;;;;;;0.88;0.88;;;18.70;99.90;;;;;;5089221;28;20048;-79
2023/06/21 02:13:34;;;;;;;1.60;1.27;;;18.40;99.90;;;;;;5089714;28;20047;-80
2023/06/21 02:16:00;;;;;;;2.58;1.60;;;18.50;99.90;;;;;;5089345;28;20032;-80
2023/06/21 02:18:26;;;;;;;;;;;18.50;99.90;;;;;;5090137;28;20051;-75
2023/06/21 02:20:52;;;;;;;1.13;0.93;;;18.50;99.90;;;;;;5122987;28;19922;-75
2023/06/21 02:23:18;;;;;;;1.10;1.00;;;18.50;99.90;;;;;;5072374;28;20036;-75
2023/06/21 02:25:44;;;;;;;1.38;0.98;;;18.70;99.90;;;;;;5072114;28;20048;-75
2023/06/21 02:28:09;;;;;;;;;;;18.70;99.90;;;;;;5089900;28;20044;-77
2023/06/21 02:30:35;;;;;;;1.65;1.55;;;18.50;99.90;;;;;;5089698;28;19934;-78
2023/06/21 02:33:01;;;;;;;;;;;18.50;99.90;;;;;;5089389;28;20447;-76
2023/06/21 02:35:26;;;;;;;2.35;0.68;;;18.60;99.90;;;;;;5072288;28;19919;-75
2023/06/21 02:37:52;;;;;;;;;;;18.70;99.90;;;;;;5072450;28;20039;-76
2023/06/21 02:40:18;;;;;;;0.65;0.65;;;18.80;99.90;;;;;;5072366;28;20006;-76
2023/06/21 02:42:44;;;;;;;2.47;1.35;;;18.60;99.90;;;;;;5088892;28;20048;-78
2023/06/21 02:45:10;;;;;;;4.18;1.58;;;18.60;99.90;;;;;;5089160;28;20059;-76
2023/06/21 02:47:36;;;;;;;1.75;1.65;;;18.50;99.90;;;;;;5089033;28;20482;-75
2023/06/21 02:50:03;;;;;;;0.80;0.80;;;18.50;99.90;;;;;;5088392;28;20040;-75
2023/06/21 02:52:29;;;;;;;1.10;1.00;;;18.20;99.90;;;;;;5090950;28;20046;-74
2023/06/21 02:54:55;;;;;;;2.10;1.42;;;18.40;99.90;;;;;;5092568;28;20139;-75
2023/06/21 02:57:20;;;;;;;;;;;18.30;99.90;;;;;;5093169;28;20469;-76
2023/06/21 02:59:48;;;;;;;4.38;2.50;;;18.20;99.90;;;;;;5092253;28;19916;-75
2023/06/21 03:02:13;;;;;;;1.95;1.40;;;18.10;99.90;;;;;;5092010;28;20376;-78
2023/06/21 03:04:39;;;;;;;1.77;1.30;;;18.00;99.90;;;;;;5091607;28;20103;-79
2023/06/21 03:07:05;;;;;;;;;;;18.00;99.90;;;;;;5074644;28;20252;-75
2023/06/21 03:09:32;;;;;;;1.13;1.08;;;18.20;99.90;;;;;;5074144;28;19930;-76
2023/06/21 03:11:58;;;;;;;0.60;0.60;;;17.90;99.90;;;;;;5057536;28;20491;-77
2023/06/21 03:14:23;;;;;;;;;;;18.20;99.90;;;;;;5092442;28;20044;-74
2023/06/21 03:16:52;;;;;;;1.05;1.02;;;17.90;99.90;;;;;;5091612;28;20285;-75
2023/06/21 03:19:18;;;;;;;1.98;1.63;;;18.10;99.90;;;;;;5075742;28;20505;-77
2023/06/21 03:21:43;;;;;;;;;;;18.10;99.90;;;;;;5075602;28;20040;-76
2023/06/21 03:24:09;;;;;;;2.70;2.50;;;18.00;99.90;;;;;;5075009;28;20002;-77
2023/06/21 03:26:35;;;;;;;;;;;18.00;99.90;;;;;;5092923;28;20040;-76
2023/06/21 03:29:02;;;;;;;2.92;2.33;;;18.20;99.90;;;;;;5091975;28;19927;-75
2023/06/21 03:31:28;;;;;;;3.03;2.80;;;18.30;99.90;;;;;;5091841;28;20494;-76
2023/06/21 03:33:56;;;;;;;3.65;1.88;;;18.20;99.90;;;;;;5074658;28;20113;-76
2023/06/21 03:36:22;;;;;;;;;;;18.10;99.90;;;;;;5091981;28;20082;-77
2023/06/21 03:38:47;;;;;;;1.08;1.05;;;18.20;99.90;;;;;;5091338;28;20007;-77
2023/06/21 03:41:13;;;;;;;;;;;18.30;99.90;;;;;;5075277;28;20036;-79
2023/06/21 03:43:38;;;;;;;2.88;0.82;;;18.20;99.90;;;;;;5091528;28;20596;-73
2023/06/21 03:46:04;;;;;;;;;;;18.30;99.90;;;;;;5091364;28;20047;-77
2023/06/21 03:48:30;;;;;;;3.05;2.72;;;18.10;99.90;;;;;;5090745;28;19930;-79
2023/06/21 03:50:55;;;;;;;;;;;18.30;99.90;;;;;;5073874;28;20048;-75
2023/06/21 03:53:21;;;;;;;0.90;0.90;;;18.00;99.90;;;;;;5091154;28;19923;-79
2023/06/21 03:55:46;;;;;;;;;;;18.20;99.90;;;;;;5091624;28;20040;-76
2023/06/21 03:58:12;;;;;;;3.83;2.60;;;17.90;99.90;;;;;;5074180;28;19916;-76
2023/06/21 04:00:38;;;;;;;;;;;18.10;99.90;;;;;;5075020;28;20126;-79
2023/06/21 04:03:04;;;;;;;1.63;1.52;;;18.10;99.90;;;;;;5090418;28;20042;-77
2023/06/21 04:05:30;;;;;;;1.83;1.58;;;18.30;99.90;;;;;;5074359;28;20043;-78
2023/06/21 04:07:55;;;;;;;3.42;1.35;;;18.10;99.90;;;;;;5074495;28;20044;-74
2023/06/21 04:10:21;;;;;;;;;;;18.30;99.90;;;;;;5074851;28;20539;-79
2023/06/21 04:12:47;;;;;;;2.97;2.78;;;18.20;99.90;;;;;;5074258;28;19916;-77
2023/06/21 04:15:12;;;;;;;;;;;18.20;99.90;;;;;;5057830;28;20086;-77
2023/06/21 04:17:38;;;;;;;1.88;1.77;;;18.40;99.90;;;;;;5075301;28;20383;-80
2023/06/21 04:20:10;;;;;;;;;;;18.20;99.90;;;;;;5057924;28;20144;-80
2023/06/21 04:22:37;;;;;;;2.30;2.10;;;18.50;99.90;;;;;;5090958;28;19927;-77
2023/06/21 04:25:03;;;;;;;2.92;1.70;;;18.30;99.90;;;;;;5091040;28;20115;-76
2023/06/21 04:27:29;;;;;;;;;;;18.20;99.90;;;;;;5091665;28;20491;-76
2023/06/21 04:29:55;;;;;;;4.65;1.90;;;18.40;99.90;;;;;;5090684;28;20017;-74
2023/06/21 04:32:20;;;;;;;;;;;18.50;99.90;;;;;;5091440;28;20120;-74
2023/06/21 04:34:48;;;;;;;2.05;1.85;;;18.40;99.90;;;;;;5057421;28;20385;-78
2023/06/21 04:37:14;;;;;;;1.98;1.88;;;18.40;99.90;;;;;;5073954;28;20128;-76
2023/06/21 04:39:39;;;;;;;2.13;1.90;;;18.40;99.90;;;;;;5074514;28;20043;-76
2023/06/21 04:42:05;;;;;;;2.75;2.47;;;18.60;99.90;;;;;;5073850;28;20063;-79
2023/06/21 04:44:31;;;;;;;;;;;18.40;99.90;;;;;;5091689;28;20052;-78
2023/06/21 04:47:00;;;;;;;1.70;1.17;;;18.50;99.90;;;;;;5091140;28;19973;-78
2023/06/21 04:49:26;;;;;;;2.47;2.28;;;18.50;99.90;;;;;;5074208;28;20090;-77
2023/06/21 04:52:00;;;;;;;2.90;2.60;;;18.70;99.90;;;;;;5073916;28;20071;-74
2023/06/21 04:54:28;;;;;;;1.70;1.42;;;18.50;99.90;;;;;;5090770;28;20062;-76
2023/06/21 04:56:54;;;;;;;3.38;3.08;;;18.70;99.90;;;;;;5073572;28;20369;-76
2023/06/21 04:59:19;;;;;;;2.22;2.03;;;18.60;99.90;;;;;;5073687;28;20040;-77
2023/06/21 05:01:45;;;;;;;1.92;1.80;;;18.70;99.90;;;;;;5073774;28;20028;-78
2023/06/21 05:04:11;;;;;;;;;;;18.70;99.90;;;;;;5090595;28;20462;-78
2023/06/21 05:06:37;;;;;;;1.73;1.63;;;18.80;99.90;;;;;;5091259;28;20293;-76
2023/06/21 05:09:04;;;;;;;5.25;2.55;;;18.80;99.90;;;;;;5090659;28;20098;-74
2023/06/21 05:11:29;;;;;;;2.47;2.20;;;18.70;99.90;;;;;;5090601;28;20079;-75
2023/06/21 05:13:55;;;;;;;3.47;2.35;;;18.80;99.90;;;;;;5073359;28;20078;-78
2023/06/21 05:16:21;;;;;;;;;;;18.70;99.90;;;;;;5089843;28;20032;-76
2023/06/21 05:18:46;;;;;;;3.50;2.08;;;18.90;99.90;;;;;;5090616;28;19924;-79
2023/06/21 05:21:12;;;;;;;;;;;18.80;99.90;;;;;;5090577;28;20400;-78
2023/06/21 05:23:38;;;;;;;1.70;1.60;;;18.80;99.90;;;;;;5073455;28;19916;-75
2023/06/21 05:26:03;;;;;;;;;;;18.80;99.90;;;;;;5073345;28;20040;-77
2023/06/21 05:28:29;;;;;;;2.13;1.15;;;18.80;99.90;;;;;;5090419;28;20312;-76
2023/06/21 05:30:54;;;;;;;2.85;2.65;;;18.90;99.90;;;;;;5090030;28;20044;-75
2023/06/21 05:33:20;;;;;;;;;;;19.00;99.90;;;;;;5072201;28;20087;-77
2023/06/21 05:35:46;;;;;;;0.98;0.93;;;18.90;99.90;;;;;;5072485;28;19939;-78
2023/06/21 05:38:11;;;;;;;;;;;18.80;99.90;;;;;;5090117;28;20124;-79
2023/06/21 05:40:37;;;;;;;1.48;1.38;;;19.30;99.90;;;;;;5055855;28;20369;-77
2023/06/21 05:43:04;;;;;;;;;;;19.50;99.90;;;;;;5089831;28;20537;-77
2023/06/21 05:45:30;;;;;;;0.85;0.85;;;19.30;99.90;;;;;;5089626;28;19972;-75
2023/06/21 05:47:59;;;;;;;;;;;19.60;99.90;;;;;;5073144;28;20139;-76
2023/06/21 05:50:25;;;;;;;2.17;0.98;;;19.10;99.90;;;;;;5089286;28;19986;-78
2023/06/21 05:52:51;;;;;;;2.05;1.95;;;19.20;99.90;;;;;;5089693;28;20098;-75
2023/06/21 05:55:16;;;;;;;;;;;19.10;99.90;;;;;;5106532;28;20047;-75
2023/06/21 05:57:42;;;;;;;1.30;1.15;;;19.60;99.90;;;;;;5055502;28;19915;-75
2023/06/21 06:00:09;;;;;;;;;;;19.60;99.90;;;;;;5090390;28;20126;-78
2023/06/21 06:02:35;;;;;;;1.08;0.57;;;19.40;99.90;;;;;;5073411;28;19973;-76
2023/06/21 06:05:01;;;;;;;0.65;0.55;;;19.50;99.90;;;;;;5073339;28;20040;-81
2023/06/21 06:07:27;;;;;;;0.65;0.65;;;19.40;99.90;;;;;;5090323;28;20583;-76
2023/06/21 06:09:52;;;;;;;1.40;1.30;;;19.40;99.90;;;;;;5073240;28;20073;-77
2023/06/21 06:12:21;;;;;;;;;;;19.30;99.90;;;;;;5090476;28;20036;-76
2023/06/21 06:14:47;;;;;;;2.15;1.80;;;19.30;99.90;;;;;;5089857;28;20378;-77
2023/06/21 06:17:13;;;;;;;1.20;1.15;;;19.30;99.90;;;;;;5089775;28;20040;-76
2023/06/21 06:19:38;;;;;;;1.45;1.20;;;19.30;99.90;;;;;;5090338;28;20052;-77
2023/06/21 06:22:04;;;;;;;;;;;19.30;99.90;;;;;;5090075;28;20040;-78
2023/06/21 06:24:30;;;;;;;3.60;2.38;;;19.30;99.90;;;;;;5090377;28;20024;-76
2023/06/21 06:26:55;;;;;;;;;;;19.40;99.90;;;;;;5074633;28;20495;-77
2023/06/21 06:29:22;;;;;;;1.10;1.00;;;19.50;99.90;;;;;;5093518;28;19928;-76
2023/06/21 06:31:48;;;;;;;1.48;1.38;;;19.60;99.90;;;;;;5094426;28;20096;-80
2023/06/21 06:34:14;;;;;;;1.58;1.45;;;19.60;99.90;;;;;;5076159;28;20067;-78
2023/06/21 06:36:40;;;;;;;2.10;2.00;;;19.60;99.90;;;;;;5093531;28;20044;-78
2023/06/21 06:39:06;;;;;;;1.48;1.33;;;19.60;99.90;;;;;;5093027;28;20079;-77
2023/06/21 06:41:32;;;;;;;1.42;1.33;;;;;;;;;;5076796;28;20044;-78
2023/06/21 06:43:58;;;;;;;2.60;2.38;;;19.90;99.90;;;;;;5093586;28;20048;-75
2023/06/21 06:46:24;;;;;;;1.50;0.73;;;19.90;99.90;;;;;;5092990;28;20047;-78
2023/06/21 06:48:49;;;;;;;1.10;1.05;;;19.90;99.90;;;;;;5076187;28;20070;-77
2023/06/21 06:51:15;;;;;;;;;;;20.00;99.90;;;;;;5072262;28;20048;-77
2023/06/21 06:53:42;;;;;;;1.65;1.33;;;20.10;99.90;;;;;;5114014;27;19923;-77
2023/06/21 06:56:07;;;;;;;2.30;1.67;;;20.50;99.90;;;;;;5092602;28;20044;-76
2023/06/21 06:58:35;;;;;;;2.42;1.25;;;20.20;99.90;;;;;;5076347;28;20042;-79
2023/06/21 07:01:05;;;;;;;1.33;1.23;;;20.70;99.90;;;;;;5092465;28;20122;-78
2023/06/21 07:03:32;;;;;;;1.83;1.73;;;20.90;99.90;;;;;;5127087;27;20070;-80
2023/06/21 07:05:58;;;;;;;0.63;0.63;;;20.50;99.90;;;;;;5076435;28;20048;-78
2023/06/21 07:08:24;;;;;;;1.85;1.75;;;20.70;99.90;;;;;;5093055;28;20378;-76
2023/06/21 07:10:50;;;;;;;0.52;0.52;;;20.50;99.90;;;;;;5092797;28;20253;-77
2023/06/21 07:13:17;;;;;;;0.77;0.40;;;20.90;99.90;;;;;;5092793;28;20051;-79
2023/06/21 07:15:43;;;;;;;1.15;1.02;;;21.10;99.90;;;;;;5093102;28;20040;-76
2023/06/21 07:18:10;;;;;;;0.40;0.40;;;20.70;99.90;;;;;;5075881;28;20413;-78
2023/06/21 07:20:35;;;;;;;1.80;1.70;;;21.10;99.90;;;;;;5092891;28;20128;-75
2023/06/21 07:23:01;;;;;;;1.20;1.10;;;20.70;99.90;;;;;;5075771;28;20136;-76
2023/06/21 07:25:27;;;;;;;;;;;21.00;99.90;;;;;;5075821;28;20055;-78
2023/06/21 07:27:53;;;;;;;4.78;1.45;;;20.90;99.90;;;;;;5126646;27;19915;-76
2023/06/21 07:30:20;;;;;;;1.35;1.25;;;21.30;99.90;;;;;;5092331;28;20051;-78
2023/06/21 07:32:47;;;;;;;1.38;1.27;;;21.30;99.90;;;;;;5075692;28;20120;-76
2023/06/21 07:35:14;;;;;;;1.33;1.00;;;21.10;99.90;;;;;;5074899;28;20051;-78
2023/06/21 07:37:44;;;;;;;0.65;0.65;;;21.30;99.90;;;;;;5075214;28;20040;-78
2023/06/21 07:40:11;;;;;;;2.38;2.17;;;21.70;99.90;;;;;;5074355;28;20567;-79
2023/06/21 07:42:40;;;;;;;0.40;0.40;;;21.80;99.90;;;;;;5092167;28;20127;-77
2023/06/21 07:45:06;;;;;;;1.52;1.42;;;22.20;99.90;;;;;;5091860;28;20492;-74
2023/06/21 07:47:32;;;;;;;0.80;0.80;;;22.20;99.90;;;;;;5091925;28;20051;-77
2023/06/21 07:49:58;;;;;;;1.80;1.05;;;21.50;99.90;;;;;;5125284;27;20052;-77
2023/06/21 07:52:24;;;;;;;0.35;0.35;;;22.10;99.90;;;;;;5074300;28;20063;-79
2023/06/21 07:54:50;;;;;;;1.38;0.68;;;22.30;99.90;;;;;;5091924;28;20044;-77
2023/06/21 07:57:16;;;;;;;2.15;2.05;;;21.80;99.90;;;;;;5090942;28;20040;-77
2023/06/21 07:59:42;;;;;;;0.93;0.80;;;21.60;99.90;;;;;;5091431;28;20630;-78
2023/06/21 08:02:09;;;;;;;2.05;0.65;;;21.90;99.90;;;;;;5074582;28;20046;-77
2023/06/21 08:04:36;;;;;;;4.35;1.23;;;21.60;99.90;;;;;;5091983;28;20039;-78
2023/06/21 08:07:02;;;;;;;0.63;0.63;;;22.20;99.90;;;;;;5075013;28;20035;-77
2023/06/21 08:09:28;;;;;;;1.27;1.20;;;21.80;99.90;;;;;;5091261;28;20487;-76
2023/06/21 08:11:54;;;;;;;0.88;0.70;;;22.10;99.90;;;;;;5091568;28;20097;-80
2023/06/21 08:14:19;;;;;;;1.52;1.20;;;22.10;99.90;;;;;;5074691;28;20489;-76
2023/06/21 08:16:45;;;;;;;0.90;0.90;;;22.20;99.90;;;;;;5074959;28;20040;-77
2023/06/21 08:19:11;;;;;;;0.57;0.57;;;21.90;99.90;;;;;;5057627;28;20051;-78
2023/06/21 08:21:36;;;;;;;1.30;0.82;;;22.90;99.90;;;;;;5057946;28;20048;-79
2023/06/21 08:24:02;;;;;;;0.50;0.50;;;22.20;99.90;;;;;;5091133;28;20044;-81
2023/06/21 08:26:28;;;;;;;0.45;0.45;;;22.40;99.90;;;;;;5091380;28;20116;-79
2023/06/21 08:28:54;;;;;;;1.17;1.10;;;22.80;99.90;;;;;;5074760;28;20051;-77
2023/06/21 08:31:19;;;;;;;0.38;0.38;;;22.80;99.90;;;;;;5057222;28;20044;-79
2023/06/21 08:33:45;;;;;;;1.02;0.93;;;22.90;99.90;;;;;;5057999;28;20063;-78
2023/06/21 08:36:11;;;;;;;0.68;0.68;;;23.00;99.90;;;;;;5058218;28;20056;-78
2023/06/21 08:38:37;;;;;;;0.68;0.68;;;22.90;99.90;;;;;;5091201;28;20048;-76
2023/06/21 08:41:04;;;;;;;0.28;0.28;;;22.60;99.90;;;;;;5057658;28;20130;-78
2023/06/21 08:43:31;;;;;;;1.33;1.00;;;23.20;99.90;;;;;;5091158;28;20133;-79
2023/06/21 08:45:57;;;;;;;5.53;1.15;;;23.10;99.90;;;;;;5091403;28;20078;-80
2023/06/21 08:48:25;;;;;;;1.77;1.67;;;23.00;99.90;;;;;;5090897;28;20123;-78
2023/06/21 08:50:51;;;;;;;1.60;1.30;;;22.60;99.90;;;;;;5091058;28;20040;-76
2023/06/21 08:53:36;;;;;;;0.77;0.77;;;22.50;99.90;;;;;;5073603;28;20516;-78
2023/06/21 08:56:05;;;;;;;1.50;1.30;;;22.80;99.90;;;;;;5091437;28;20054;-78
2023/06/21 08:59:01;;;;;;;0.55;0.55;;;22.60;99.90;;;;;;5073778;28;20047;-80
2023/06/21 09:01:31;;;;;;;0.80;0.80;;;22.70;99.90;;;;;;5087555;28;20055;-78
2023/06/21 09:03:58;;;;;;;0.40;0.40;;;22.90;99.90;;;;;;5091091;28;20373;-77
2023/06/21 09:06:26;;;;;;;1.98;1.08;;;23.30;99.90;;;;;;5073051;28;20567;-78
2023/06/21 09:08:52;;;;;;;0.70;0.70;;;23.00;99.90;;;;;;5090265;28;20043;-79
2023/06/21 09:11:23;;;;;;;2.30;0.88;;;23.60;99.90;;;;;;5073252;28;20036;-78
2023/06/21 09:13:51;;;;;;;0.30;0.30;;;23.70;99.90;;;;;;5074248;28;20690;-77
2023/06/21 09:16:18;;;;;;;1.48;1.38;;;23.50;99.90;;;;;;5073764;28;20090;-81
2023/06/21 09:18:45;;;;;;;1.50;1.40;;;23.70;99.90;;;;;;5090674;28;20090;-76
2023/06/21 09:21:12;;;;;;;0.68;0.68;;;23.40;99.90;;;;;;5090480;28;20056;-82
2023/06/21 09:23:39;;;;;;;0.73;0.73;;;23.50;99.90;;;;;;5091347;28;20101;-75
2023/06/21 09:26:06;;;;;;;0.57;0.57;;;23.50;99.90;;;;;;5091166;28;20411;-76
2023/06/21 09:28:32;;;;;;;0.65;0.60;;;23.60;99.90;;;;;;5073573;28;20079;-76
2023/06/21 09:30:58;;;;;;;2.28;2.17;;;23.50;99.90;;;;;;5090312;28;20083;-78
2023/06/21 09:33:25;;;;;;;0.80;0.80;;;23.40;99.90;;;;;;5090183;28;20193;-79
2023/06/21 09:35:51;;;;;;;0.50;0.50;;;23.70;99.90;;;;;;5073768;28;20102;-77
2023/06/21 09:38:21;;;;;;;3.88;1.17;;;23.50;99.90;;;;;;5073898;28;20035;-74
2023/06/21 09:40:46;;;;;;;0.20;0.20;;;23.90;99.90;;;;;;5090348;28;20127;-78
2023/06/21 09:43:12;;;;;;;2.30;1.85;;;23.70;99.90;;;;;;5073477;28;20123;-76
2023/06/21 09:45:38;;;;;;;1.33;1.23;;;23.70;99.90;;;;;;5073439;28;20094;-79
2023/06/21 09:48:03;;;;;;;0.35;0.35;;;24.10;99.90;;;;;;5056959;28;20050;-79
2023/06/21 09:50:36;;;;;;;0.30;0.30;;;24.40;99.90;;;;;;5073310;28;20120;-77
2023/06/21 09:53:02;;;;;;;0.30;0.30;;;24.40;99.90;;;;;;5090275;28;20040;-79
2023/06/21 09:55:28;;;;;;;1.95;0.88;;;24.50;99.90;;;;;;5073096;28;20048;-77
2023/06/21 09:57:54;;;;;;;0.60;0.60;;;24.40;99.90;;;;;;5090001;28;20531;-76
2023/06/21 10:00:20;;;;;;;0.20;0.20;;;24.60;99.90;;;;;;5056617;28;20074;-77
2023/06/21 10:02:46;;;;;;;0.65;0.43;;;24.10;99.90;;;;;;5076146;28;20481;-76
2023/06/21 10:05:19;;;;;;;1.80;0.43;;;24.20;99.90;;;;;;5078026;28;20044;-80
2023/06/21 10:07:48;;;;;;;1.48;1.38;;;24.30;99.90;;;;;;5077457;28;20048;-79
2023/06/21 10:10:14;;;;;;;6.38;1.83;;;24.70;99.90;;;;;;5094890;28;20040;-76
2023/06/21 10:12:52;;;;;;;0.98;0.68;;;24.60;99.90;;;;;;5094148;28;20055;-80
2023/06/21 10:15:19;;;;;;;0.68;0.68;;;25.00;99.90;;;;;;5093918;28;20044;-78
2023/06/21 10:17:48;;;;;;;0.50;0.47;;;25.40;99.90;;;;;;5077524;28;20092;-77
2023/06/21 10:20:14;;;;;;;0.40;0.40;;;25.50;99.90;;;;;;5094467;28;20098;-76
2023/06/21 10:22:43;;;;;;;0.75;0.75;;;25.10;99.90;;;;;;5093703;28;20043;-76
2023/06/21 10:25:10;;;;;;;0.73;0.73;;;25.20;99.90;;;;;;5094887;28;20050;-79
2023/06/21 10:27:37;;;;;;;0.40;0.40;;;25.30;99.90;;;;;;5093929;28;20048;-81
2023/06/21 10:30:04;;;;;;;0.63;0.63;;;25.70;99.90;;;;;;5094033;28;20051;-77
2023/06/21 10:32:34;;;;;;;0.17;0.17;;;25.90;99.90;;;;;;5093708;28;20060;-77
2023/06/21 10:35:17;;;;;;;0.47;0.47;;;26.00;99.90;;;;;;5077190;28;20141;-79
2023/06/21 10:38:11;;;;;;;0.30;0.30;;;26.50;99.90;;;;;;5094182;28;20051;-80
2023/06/21 10:40:37;;;;;;;0.52;0.52;;;26.50;99.90;;;;;;5094022;28;20127;-80
2023/06/21 10:43:03;;;;;;;0.20;0.20;;;26.60;99.90;;;;;;5094010;28;20044;-77
2023/06/21 10:45:30;;;;;;;0.20;0.20;;;26.50;99.90;;;;;;5093513;28;20511;-79
2023/06/21 10:47:56;;;;;;;0.10;0.10;;;26.50;99.90;;;;;;5077408;28;20050;-77
2023/06/21 10:50:24;;;;;;;0.40;0.40;;;26.50;99.90;;;;;;5076214;28;20104;-77
2023/06/21 10:52:54;;;;;;;0.52;0.52;;;26.60;99.90;;;;;;5127947;27;20043;-81
2023/06/21 10:55:21;;;;;;;0.22;0.22;;;26.50;99.90;;;;;;5127642;27;20040;-79
2023/06/21 10:57:53;;;;;;;0.15;0.15;;;26.10;99.90;;;;;;5110794;28;20504;-77
2023/06/21 11:00:21;;;;;;;0.25;0.25;;;26.60;99.90;;;;;;5110481;28;20458;-77
2023/06/21 11:02:47;;;;;;;0.40;0.40;;;26.60;99.90;;;;;;5127788;27;20481;-76
2023/06/21 11:05:26;;;;;;;0.30;0.30;;;26.50;99.90;;;;;;5094537;28;20104;-79
2023/06/21 11:08:04;;;;;;;0.32;0.32;;;26.50;99.90;;;;;;5094081;28;20055;-79
2023/06/21 11:10:46;;;;;;;0.17;0.17;;;26.50;99.90;;;;;;5093782;28;20044;-78
2023/06/21 11:13:14;;;;;;;0.35;0.35;;;26.30;99.90;;;;;;5110402;28;20035;-76
2023/06/21 11:15:41;;;;;;;0.10;0.10;;;26.20;99.90;;;;;;5076835;28;20097;-77
2023/06/21 11:18:09;;;;;;;1.05;0.60;;;26.10;99.90;;;;;;5093994;28;20129;-79
2023/06/21 11:20:46;;;;;;;1.85;0.90;;;26.20;99.90;;;;;;5110176;28;20101;-78
2023/06/21 11:23:18;;;;;;;0.50;0.50;;;26.30;99.90;;;;;;5110426;28;20496;-79
2023/06/21 11:26:12;;;;;;;1.65;0.50;;;26.00;99.90;;;;;;5076708;28;20094;-82
2023/06/21 11:28:46;;;;;;;0.32;0.32;;;26.00;99.90;;;;;;5093581;28;20392;-78
2023/06/21 11:31:14;;;;;;;0.45;0.40;;;26.10;99.90;;;;;;5076633;28;20123;-78
2023/06/21 11:33:48;;;;;;;1.25;0.35;;;26.40;99.90;;;;;;5092627;28;20045;-77
2023/06/21 11:36:16;;;;;;;0.35;0.35;;;27.00;99.90;;;;;;5093604;28;20047;-77
2023/06/21 11:38:58;;;;;;;0.30;0.30;;;27.30;99.90;;;;;;5092867;28;20146;-80
2023/06/21 11:41:57;;;;;;;0.28;0.20;;;27.40;99.90;;;;;;5092607;28;20105;-77
2023/06/21 11:44:30;;;;;;;0.40;0.40;;;27.60;99.90;;;;;;5109734;28;20048;-78
2023/06/21 11:47:16;;;;;;;0.20;0.20;;;27.60;99.90;;;;;;5126990;27;20100;-77
2023/06/21 11:49:48;;;;;;;0.47;0.47;;;28.00;99.90;;;;;;5093009;28;20544;-77
2023/06/21 11:52:14;;;;;;;2.28;0.50;;;28.10;99.90;;;;;;5129159;27;20040;-80
2023/06/21 11:54:40;;;;;;;0.15;0.15;;;28.20;99.90;;;;;;5075692;28;20089;-77
2023/06/21 11:57:06;;;;;;;1.15;1.05;;;28.00;99.90;;;;;;5127146;27;20048;-78
2023/06/21 11:59:33;;;;;;;0.40;0.40;;;27.90;99.90;;;;;;5130553;27;20051;-77
2023/06/21 12:02:14;;;;;;;0.65;0.65;;;28.10;99.90;;;;;;5110093;28;20090;-82
2023/06/21 12:04:41;;;;;;;0.10;0.10;;;28.10;99.90;;;;;;5127062;27;20377;-80
2023/06/21 12:07:08;;;;;;;0.20;0.20;;;28.10;99.90;;;;;;5133419;27;20079;-77
2023/06/21 12:09:34;;;;;;;0.10;0.10;;;28.30;99.90;;;;;;5127101;27;20358;-77
2023/06/21 12:12:00;;;;;;;0.73;0.40;;;28.20;99.90;;;;;;5127509;27;20035;-80
2023/06/21 12:14:26;;;;;;;1.00;0.90;;;28.40;99.90;;;;;;5093538;28;20392;-79
2023/06/21 12:16:52;;;;;;;0.50;0.50;;;28.50;99.90;;;;;;5126416;27;20047;-79
2023/06/21 12:19:21;;;;;;;0.10;0.10;;;28.30;99.90;;;;;;5092295;28;20044;-77
2023/06/21 12:21:48;;;;;;;2.38;1.13;;;28.10;99.90;;;;;;5126146;27;20116;-80
2023/06/21 12:24:14;;;;;;;0.60;0.50;;;27.70;99.90;;;;;;5091800;28;20341;-82
2023/06/21 12:26:50;;;;;;;0.22;0.22;;;27.80;99.90;;;;;;5126004;27;20044;-77
2023/06/21 12:29:15;;;;;;;;;;;28.00;99.90;;;;;;5093049;28;20388;-80
2023/06/21 12:31:45;;;;;;;0.80;0.57;;;28.10;99.90;;;;;;5075048;28;19924;-78
2023/06/21 12:34:15;;;;;;;0.35;0.30;;;27.80;99.90;;;;;;5091857;28;20158;-78
2023/06/21 12:36:45;;;;;;;2.72;0.88;;;27.70;99.90;;;;;;5091685;28;20052;-81
2023/06/21 12:39:12;;;;;;;0.40;0.40;;;27.60;99.90;;;;;;5092026;28;20524;-78
2023/06/21 12:41:43;;;;;;;0.65;0.65;;;27.90;99.90;;;;;;5125664;27;20092;-77
2023/06/21 12:44:23;;;;;;;0.88;0.80;;;27.70;99.90;;;;;;5091932;28;20052;-77
2023/06/21 12:46:50;;;;;;;0.82;0.63;;;27.90;99.90;;;;;;5091376;28;20083;-80
2023/06/21 12:49:16;;;;;;;0.50;0.47;;;28.30;99.90;;;;;;5091247;28;20108;-79
2023/06/21 12:51:44;;;;;;;2.92;1.00;;;28.70;99.90;;;;;;5091127;28;20044;-74
2023/06/21 12:54:18;;;;;;;0.40;0.40;;;28.70;99.90;;;;;;5091310;28;20575;-77
2023/06/21 12:56:49;;;;;;;0.20;0.20;;;29.20;99.90;;;;;;5091368;28;20040;-75
2023/06/21 12:59:15;;;;;;;0.50;0.50;;;29.60;99.90;;;;;;5092243;28;20063;-78
2023/06/21 13:01:41;;;;;;;0.80;0.80;;;29.80;99.90;;;;;;5091324;28;20048;-79
2023/06/21 13:04:09;;;;;;;0.40;0.40;;;29.60;98.10;;;;;;5091634;28;20051;-78
2023/06/21 13:06:35;;;;;;;1.35;1.25;;;29.60;98.00;;;;;;5092937;28;20119;-74